Time;durP1;ratioP1;P1;durP2;ratioP2;P2;SDS_P1;SDS_P2;PMS_P1;PMS_P2;Temp;Humidity;BMP_temperature;BMP_pressure;BME280_temperature;BME280_humidity;BME280_pressure;Samples;Min_cycle;Max_cycle;Signal;HPM_P1;HPM_P2
2023/08/07 00:00:57;;;;;;;184.57;52.37;;;;;;;;;;5053867;28;20268;-49
2023/08/07 00:03:23;;;;;;;183.47;52.03;;;;;;;;;;5054227;28;20468;-47
2023/08/07 00:05:51;;;;;;;184.53;53.07;;;;;;;;;;5054069;28;20418;-49
2023/08/07 00:08:17;;;;;;;182.52;51.28;;;;;;;;;;5053992;28;20419;-48
2023/08/07 00:10:43;;;;;;;183.50;52.33;;;;;;;;;;5053831;28;20282;-48
2023/08/07 00:13:09;;;;;;;184.02;52.33;;;;;;;;;;5053926;28;20409;-49
2023/08/07 00:15:38;;;;;;;185.30;52.77;;;;;;;;;;5053966;28;20236;-49
2023/08/07 00:18:04;;;;;;;181.93;50.90;;;;;;;;;;5053877;28;20449;-48
2023/08/07 00:20:30;;;;;;;184.80;53.30;;;;;;;;;;5053239;28;20297;-49
2023/08/07 00:22:56;;;;;;;184.60;52.13;;;;;;;;;;5053933;28;20405;-49
2023/08/07 00:25:22;;;;;;;185.07;53.27;;;;;;;;;;5051811;28;20416;-48
2023/08/07 00:27:48;;;;;;;181.40;50.77;;;;;;;;;;5053793;28;20500;-48
2023/08/07 00:30:14;;;;;;;184.90;52.72;;;;;;;;;;5052521;28;20440;-48
2023/08/07 00:32:40;;;;;;;183.60;52.17;;;;;;;;;;5052575;28;20642;-48
2023/08/07 00:35:08;;;;;;;183.77;52.57;;;;;;;;;;5052243;28;21007;-51
2023/08/07 00:37:34;;;;;;;185.20;52.83;;;;;;;;;;5052071;28;20741;-49
2023/08/07 00:39:59;;;;;;;185.47;52.50;;;;;;;;;;5052495;28;20201;-47
2023/08/07 00:42:25;;;;;;;185.93;52.83;;;;;;;;;;5053473;28;20401;-47
2023/08/07 00:44:51;;;;;;;185.68;52.50;;;;;;;;;;5053429;28;20479;-47
2023/08/07 00:47:17;;;;;;;175.30;50.90;;;;;;;;;;5053805;28;20248;-48
2023/08/07 00:49:43;;;;;;;178.13;54.50;;;;;;;;;;5053233;28;20800;-50
2023/08/07 00:52:10;;;;;;;177.35;53.50;;;;;;;;;;5051908;28;20202;-50
2023/08/07 00:54:38;;;;;;;177.68;53.30;;;;;;;;;;5053183;28;20662;-48
2023/08/07 00:57:11;;;;;;;176.90;52.10;;;;;;;;;;5053211;28;20702;-50
2023/08/07 00:59:37;;;;;;;179.13;53.10;;;;;;;;;;5053045;28;20178;-49
2023/08/07 01:02:03;;;;;;;181.20;54.80;;;;;;;;;;5051738;28;20557;-51
2023/08/07 01:04:29;;;;;;;179.88;53.25;;;;;;;;;;5052746;28;20413;-51
2023/08/07 01:06:55;;;;;;;180.53;55.03;;;;;;;;;;5050081;28;20178;-49
2023/08/07 01:09:21;;;;;;;179.63;54.03;;;;;;;;;;5048924;28;20413;-52
2023/08/07 01:11:50;;;;;;;179.70;54.60;;;;;;;;;;5052945;28;20532;-50
2023/08/07 01:14:18;;;;;;;179.43;53.05;;;;;;;;;;5052854;28;20257;-50
2023/08/07 01:16:48;;;;;;;176.05;51.65;;;;;;;;;;5052757;28;20220;-52
2023/08/07 01:19:34;;;;;;;179.32;52.72;;;;;;;;;;5051683;28;20270;-52
2023/08/07 01:22:13;;;;;;;179.15;52.20;;;;;;;;;;5051023;28;20210;-51
2023/08/07 01:24:40;;;;;;;179.07;51.97;;;;;;;;;;5044373;28;20573;-51
2023/08/07 01:27:16;;;;;;;179.90;54.15;;;;;;;;;;5048160;28;20179;-49
2023/08/07 01:29:48;;;;;;;181.00;53.75;;;;;;;;;;5051000;28;20257;-51
2023/08/07 01:32:15;;;;;;;179.00;51.70;;;;;;;;;;5052433;28;20643;-50
2023/08/07 01:34:41;;;;;;;179.48;52.05;;;;;;;;;;5051004;28;20567;-50
2023/08/07 01:37:08;;;;;;;179.23;51.72;;;;;;;;;;5052373;28;20207;-51
2023/08/07 01:39:34;;;;;;;178.68;51.67;;;;;;;;;;5048013;28;20179;-52
2023/08/07 01:42:02;;;;;;;180.38;52.53;;;;;;;;;;5052124;28;20189;-51
2023/08/07 01:44:28;;;;;;;179.82;52.17;;;;;;;;;;5052367;28;20719;-51
2023/08/07 01:46:54;;;;;;;178.55;51.40;;;;;;;;;;5052284;28;20167;-51
2023/08/07 01:49:20;;;;;;;179.55;52.17;;;;;;;;;;5050759;28;20248;-52
2023/08/07 01:51:46;;;;;;;177.87;50.20;;;;;;;;;;5052377;28;20269;-47
2023/08/07 01:54:12;;;;;;;180.67;52.43;;;;;;;;;;5051958;28;20417;-49
2023/08/07 01:56:38;;;;;;;179.00;51.50;;;;;;;;;;5051945;28;20424;-49
2023/08/07 01:59:04;;;;;;;181.13;52.40;;;;;;;;;;5052170;28;20451;-48
2023/08/07 02:01:30;;;;;;;192.73;61.33;;;;;;;;;;5046831;28;20501;-48
2023/08/07 02:03:56;;;;;;;177.63;50.67;;;;;;;;;;5049541;28;20413;-48
2023/08/07 02:06:22;;;;;;;179.17;51.37;;;;;;;;;;5051942;28;20406;-50
2023/08/07 02:08:48;;;;;;;179.20;52.15;;;;;;;;;;5047075;28;20440;-51
2023/08/07 02:11:14;;;;;;;179.77;52.37;;;;;;;;;;5047130;28;20500;-50
2023/08/07 02:13:40;;;;;;;179.73;51.70;;;;;;;;;;5058078;28;20411;-47
2023/08/07 02:16:05;;;;;;;179.60;52.17;;;;;;;;;;5050636;28;20759;-48
2023/08/07 02:18:31;;;;;;;180.27;52.40;;;;;;;;;;5054750;28;20788;-47
2023/08/07 02:20:57;;;;;;;179.37;51.90;;;;;;;;;;5049144;28;20535;-50
2023/08/07 02:23:23;;;;;;;180.13;51.97;;;;;;;;;;5049390;28;20907;-49
2023/08/07 02:25:49;;;;;;;180.00;51.87;;;;;;;;;;5051718;28;20836;-52
2023/08/07 02:28:15;;;;;;;177.87;51.10;;;;;;;;;;5059362;28;20750;-48
2023/08/07 02:30:41;;;;;;;179.13;51.37;;;;;;;;;;5050249;28;20439;-48
2023/08/07 02:33:07;;;;;;;178.60;51.50;;;;;;;;;;5051545;28;20421;-48
2023/08/07 02:35:33;;;;;;;179.40;51.53;;;;;;;;;;5051449;28;20873;-49
2023/08/07 02:37:59;;;;;;;180.77;52.17;;;;;;;;;;5051375;28;20175;-50
2023/08/07 02:40:25;;;;;;;179.57;51.77;;;;;;;;;;5051179;28;20634;-48
2023/08/07 02:42:51;;;;;;;179.60;52.00;;;;;;;;;;5051541;28;20912;-49
2023/08/07 02:45:17;;;;;;;180.30;52.30;;;;;;;;;;5050137;28;20177;-50
2023/08/07 02:47:43;;;;;;;179.37;51.87;;;;;;;;;;5051480;28;20170;-51
2023/08/07 02:50:09;;;;;;;178.27;50.80;;;;;;;;;;5050994;28;20455;-48
2023/08/07 02:52:35;;;;;;;180.13;52.42;;;;;;;;;;5051204;28;20404;-49
2023/08/07 02:55:01;;;;;;;178.53;51.00;;;;;;;;;;5051357;28;20320;-48
2023/08/07 02:57:27;;;;;;;178.80;52.50;;;;;;;;;;5051245;28;20405;-48
2023/08/07 02:59:53;;;;;;;184.15;55.97;;;;;;;;;;5050973;28;20976;-48
2023/08/07 03:02:19;;;;;;;178.97;51.73;;;;;;;;;;5048579;28;20181;-48
2023/08/07 03:04:45;;;;;;;178.90;52.07;;;;;;;;;;5051322;28;20404;-48
2023/08/07 03:07:11;;;;;;;180.00;52.50;;;;;;;;;;5051479;28;20495;-49
2023/08/07 03:09:37;;;;;;;179.47;51.63;;;;;;;;;;5051046;28;20424;-56
2023/08/07 03:12:04;;;;;;;177.67;50.70;;;;;;;;;;5050083;28;20435;-48
2023/08/07 03:14:30;;;;;;;179.43;52.15;;;;;;;;;;5048301;28;20413;-51
2023/08/07 03:16:56;;;;;;;181.52;53.70;;;;;;;;;;5051157;28;20216;-52
2023/08/07 03:19:22;;;;;;;179.23;51.92;;;;;;;;;;5051080;28;20178;-51
2023/08/07 03:21:48;;;;;;;180.45;53.05;;;;;;;;;;5050524;28;20380;-48
2023/08/07 03:24:14;;;;;;;180.10;52.37;;;;;;;;;;5051149;28;20174;-50
2023/08/07 03:26:40;;;;;;;179.70;51.87;;;;;;;;;;5052513;28;20405;-47
2023/08/07 03:29:06;;;;;;;179.57;52.03;;;;;;;;;;5054908;28;21210;-48
2023/08/07 03:31:32;;;;;;;180.03;52.47;;;;;;;;;;5054489;28;20226;-48
2023/08/07 03:33:58;;;;;;;180.50;52.60;;;;;;;;;;5054840;28;20420;-48
2023/08/07 03:36:24;;;;;;;182.95;54.60;;;;;;;;;;5054441;28;20411;-48
2023/08/07 03:38:50;;;;;;;180.20;52.17;;;;;;;;;;5054752;28;20236;-48
2023/08/07 03:41:16;;;;;;;179.50;51.60;;;;;;;;;;5053356;28;20581;-49
2023/08/07 03:43:42;;;;;;;179.60;52.63;;;;;;;;;;5054545;28;20408;-50
2023/08/07 03:46:08;;;;;;;179.33;51.90;;;;;;;;;;5052934;28;20408;-51
2023/08/07 03:48:34;;;;;;;178.77;51.57;;;;;;;;;;5054622;28;20479;-47
2023/08/07 03:51:04;;;;;;;180.47;52.80;;;;;;;;;;5053912;28;20952;-48
2023/08/07 03:53:30;;;;;;;180.38;51.55;;;;;;;;;;5053407;28;20913;-48
2023/08/07 03:55:56;;;;;;;180.30;52.07;;;;;;;;;;5054493;28;20171;-48
2023/08/07 03:58:22;;;;;;;179.77;51.80;;;;;;;;;;5053013;28;20439;-49
2023/08/07 04:00:48;;;;;;;180.03;52.30;;;;;;;;;;5049722;28;21020;-50
2023/08/07 04:03:14;;;;;;;179.93;52.25;;;;;;;;;;5054244;28;20412;-53
2023/08/07 04:05:39;;;;;;;178.77;51.27;;;;;;;;;;5054007;28;20506;-49
2023/08/07 04:08:05;;;;;;;177.37;50.50;;;;;;;;;;5053552;28;20478;-49
2023/08/07 04:10:31;;;;;;;180.03;51.80;;;;;;;;;;5053781;28;20793;-48
2023/08/07 04:12:57;;;;;;;178.80;51.30;;;;;;;;;;5054157;28;20408;-47
2023/08/07 04:15:23;;;;;;;179.60;52.00;;;;;;;;;;5053978;28;20451;-49
2023/08/07 04:17:49;;;;;;;178.67;51.13;;;;;;;;;;5054031;28;20420;-50
2023/08/07 04:20:15;;;;;;;180.40;52.20;;;;;;;;;;5053345;28;20472;-52
2023/08/07 04:22:41;;;;;;;177.17;50.20;;;;;;;;;;5053087;28;20770;-48
2023/08/07 04:25:07;;;;;;;179.57;51.50;;;;;;;;;;5053845;28;20444;-49
2023/08/07 04:27:33;;;;;;;178.82;51.30;;;;;;;;;;5053811;28;20420;-48
2023/08/07 04:29:59;;;;;;;181.13;52.40;;;;;;;;;;5052278;28;20243;-48
2023/08/07 04:32:25;;;;;;;178.60;51.43;;;;;;;;;;5053614;28;20405;-48
2023/08/07 04:34:51;;;;;;;178.93;51.42;;;;;;;;;;5052280;28;20815;-48
2023/08/07 04:37:17;;;;;;;178.90;50.80;;;;;;;;;;5052756;28;20208;-48
2023/08/07 04:39:43;;;;;;;180.80;53.10;;;;;;;;;;5050894;28;20182;-50
2023/08/07 04:42:09;;;;;;;179.60;51.40;;;;;;;;;;5053461;28;20448;-51
2023/08/07 04:44:35;;;;;;;177.70;51.30;;;;;;;;;;5053564;28;20820;-48
2023/08/07 04:47:02;;;;;;;180.87;51.87;;;;;;;;;;5053498;28;20425;-49
2023/08/07 04:49:27;;;;;;;179.35;51.72;;;;;;;;;;5052326;28;20929;-48
2023/08/07 04:51:53;;;;;;;178.37;50.93;;;;;;;;;;5053121;28;20190;-48
2023/08/07 04:54:19;;;;;;;178.57;50.93;;;;;;;;;;5053186;28;20984;-48
2023/08/07 04:56:45;;;;;;;179.37;52.17;;;;;;;;;;5053474;28;20905;-48
2023/08/07 04:59:11;;;;;;;178.00;51.20;;;;;;;;;;5053218;28;20801;-49
2023/08/07 05:01:38;;;;;;;178.32;50.95;;;;;;;;;;5052798;28;20504;-49
2023/08/07 05:04:05;;;;;;;179.55;53.25;;;;;;;;;;5047975;28;20182;-49
2023/08/07 05:06:31;;;;;;;180.10;52.30;;;;;;;;;;5052043;28;20256;-47
2023/08/07 05:08:57;;;;;;;180.15;52.67;;;;;;;;;;5051467;28;20173;-48
2023/08/07 05:11:23;;;;;;;181.52;53.83;;;;;;;;;;5050436;28;20189;-49
2023/08/07 05:13:49;;;;;;;179.80;52.97;;;;;;;;;;5047999;28;20378;-48
2023/08/07 05:16:17;;;;;;;179.87;52.07;;;;;;;;;;5052896;28;20193;-48
2023/08/07 05:18:43;;;;;;;178.75;52.55;;;;;;;;;;5052187;28;20428;-47
2023/08/07 05:21:09;;;;;;;178.40;51.67;;;;;;;;;;5052508;28;20248;-47
2023/08/07 05:23:35;;;;;;;180.97;53.07;;;;;;;;;;5049428;28;20199;-48
2023/08/07 05:26:02;;;;;;;180.90;53.60;;;;;;;;;;5052516;28;20416;-49
2023/08/07 05:28:28;;;;;;;179.98;53.05;;;;;;;;;;5051142;28;20404;-48
2023/08/07 05:30:54;;;;;;;182.88;54.30;;;;;;;;;;5050719;28;20196;-50
2023/08/07 05:33:20;;;;;;;184.00;56.27;;;;;;;;;;5050911;28;20182;-49
2023/08/07 05:35:46;;;;;;;180.73;53.63;;;;;;;;;;5051429;28;20409;-50
2023/08/07 05:38:12;;;;;;;177.90;51.20;;;;;;;;;;5052539;28;20179;-48
2023/08/07 05:40:38;;;;;;;179.27;52.60;;;;;;;;;;5052030;28;20471;-48
2023/08/07 05:43:04;;;;;;;180.55;53.15;;;;;;;;;;5052491;28;20409;-48
2023/08/07 05:45:30;;;;;;;179.07;51.87;;;;;;;;;;5051597;28;20186;-48
2023/08/07 05:47:56;;;;;;;178.95;52.53;;;;;;;;;;5052120;28;20900;-48
2023/08/07 05:50:22;;;;;;;179.80;51.97;;;;;;;;;;5053847;28;20206;-49
2023/08/07 05:52:47;;;;;;;179.48;52.03;;;;;;;;;;5056045;28;20423;-50
2023/08/07 05:55:13;;;;;;;180.23;53.40;;;;;;;;;;5052173;28;20180;-52
2023/08/07 05:57:39;;;;;;;178.37;51.77;;;;;;;;;;5052172;28;20464;-48
2023/08/07 06:00:07;;;;;;;180.93;52.97;;;;;;;;;;5051745;28;20814;-48
2023/08/07 06:02:33;;;;;;;177.65;51.33;;;;;;;;;;5051952;28;20413;-49
2023/08/07 06:04:59;;;;;;;179.80;52.08;;;;;;;;;;5053744;28;20218;-48
2023/08/07 06:07:25;;;;;;;180.50;53.67;;;;;;;;;;5054337;28;20174;-48
2023/08/07 06:09:51;;;;;;;183.18;55.40;;;;;;;;;;5045742;28;20420;-49
2023/08/07 06:12:17;;;;;;;178.80;51.83;;;;;;;;;;5051092;28;20175;-50
2023/08/07 06:14:43;;;;;;;179.70;52.40;;;;;;;;;;5050585;28;20413;-51
2023/08/07 06:17:09;;;;;;;178.43;52.07;;;;;;;;;;5051062;28;20409;-47
2023/08/07 06:19:35;;;;;;;180.30;51.90;;;;;;;;;;5051640;28;20502;-51
2023/08/07 06:22:01;;;;;;;179.47;52.83;;;;;;;;;;5051471;28;20445;-48
2023/08/07 06:24:27;;;;;;;177.47;51.07;;;;;;;;;;5051523;28;20414;-48
2023/08/07 06:26:53;;;;;;;178.23;51.88;;;;;;;;;;5051721;28;20417;-48
2023/08/07 06:29:19;;;;;;;180.13;53.17;;;;;;;;;;5051208;28;20186;-49
2023/08/07 06:31:45;;;;;;;178.20;51.30;;;;;;;;;;5051296;28;20192;-49
2023/08/07 06:34:11;;;;;;;178.80;52.22;;;;;;;;;;5051608;28;20441;-50
2023/08/07 06:36:37;;;;;;;179.00;51.85;;;;;;;;;;5051419;28;20687;-48
2023/08/07 06:39:03;;;;;;;178.10;52.07;;;;;;;;;;5048681;28;20253;-48
2023/08/07 06:41:30;;;;;;;179.10;51.45;;;;;;;;;;5050827;28;20872;-51
2023/08/07 06:43:56;;;;;;;179.50;53.35;;;;;;;;;;5051380;28;20173;-49
2023/08/07 06:46:24;;;;;;;178.37;53.40;;;;;;;;;;5051553;28;20182;-50
2023/08/07 06:48:50;;;;;;;176.73;51.15;;;;;;;;;;5051528;28;20455;-51
2023/08/07 06:51:16;;;;;;;178.93;53.57;;;;;;;;;;5051190;28;20621;-48
2023/08/07 06:53:42;;;;;;;179.38;52.97;;;;;;;;;;5051772;28;20447;-48
2023/08/07 06:56:08;;;;;;;177.32;51.97;;;;;;;;;;5046748;28;20189;-48
2023/08/07 06:58:34;;;;;;;177.27;51.87;;;;;;;;;;5049259;28;20193;-48
2023/08/07 07:01:00;;;;;;;177.73;51.07;;;;;;;;;;5052498;28;20823;-48
2023/08/07 07:03:26;;;;;;;179.00;53.05;;;;;;;;;;5055287;28;20412;-48
2023/08/07 07:05:52;;;;;;;175.05;51.75;;;;;;;;;;5055838;28;20166;-48
2023/08/07 07:08:18;;;;;;;176.37;51.60;;;;;;;;;;5055305;28;20681;-49
2023/08/07 07:10:44;;;;;;;177.93;52.05;;;;;;;;;;5054893;28;20436;-48
2023/08/07 07:13:10;;;;;;;179.60;53.07;;;;;;;;;;5055219;28;20189;-48
2023/08/07 07:15:36;;;;;;;180.60;53.40;;;;;;;;;;5054999;28;20411;-50
2023/08/07 07:18:02;;;;;;;176.90;51.73;;;;;;;;;;5051632;28;20949;-50
2023/08/07 07:20:28;;;;;;;179.88;52.92;;;;;;;;;;5052725;28;20456;-52
2023/08/07 07:22:54;;;;;;;178.53;51.87;;;;;;;;;;5049082;28;20242;-49
2023/08/07 07:25:20;;;;;;;177.77;52.43;;;;;;;;;;5054763;28;20428;-49
2023/08/07 07:27:46;;;;;;;178.57;52.20;;;;;;;;;;5054921;28;20505;-52
2023/08/07 07:30:12;;;;;;;179.17;53.23;;;;;;;;;;5054858;28;20425;-52
2023/08/07 07:32:39;;;;;;;182.18;55.40;;;;;;;;;;5046434;28;20409;-52
2023/08/07 07:35:05;;;;;;;179.02;53.00;;;;;;;;;;5054597;28;20182;-52
2023/08/07 07:37:31;;;;;;;179.20;52.25;;;;;;;;;;5054596;28;20179;-48
2023/08/07 07:39:57;;;;;;;177.52;50.92;;;;;;;;;;5054450;28;20663;-49
2023/08/07 07:42:23;;;;;;;178.55;51.75;;;;;;;;;;5053527;28;20186;-49
2023/08/07 07:44:49;;;;;;;181.07;53.27;;;;;;;;;;5054692;28;20550;-49
2023/08/07 07:47:15;;;;;;;178.05;51.47;;;;;;;;;;5041226;28;20493;-50
2023/08/07 07:49:47;;;;;;;180.37;53.27;;;;;;;;;;5047641;28;20694;-50
2023/08/07 07:52:13;;;;;;;178.65;51.53;;;;;;;;;;5054548;28;20408;-49
2023/08/07 07:54:39;;;;;;;177.23;51.47;;;;;;;;;;5054438;28;20167;-49
2023/08/07 07:57:05;;;;;;;179.97;52.23;;;;;;;;;;5051389;28;20401;-50
2023/08/07 07:59:31;;;;;;;184.50;55.10;;;;;;;;;;5052403;28;20411;-49
2023/08/07 08:01:57;;;;;;;176.87;51.03;;;;;;;;;;5053356;28;20206;-49
2023/08/07 08:04:23;;;;;;;182.13;54.63;;;;;;;;;;5053767;28;20416;-49
2023/08/07 08:06:49;;;;;;;178.43;51.47;;;;;;;;;;5053349;28;20413;-50
2023/08/07 08:09:15;;;;;;;177.87;51.17;;;;;;;;;;5053671;28;20416;-52
2023/08/07 08:11:41;;;;;;;178.50;51.80;;;;;;;;;;5053373;28;20440;-49
2023/08/07 08:14:07;;;;;;;178.97;52.07;;;;;;;;;;5054343;28;20189;-49
2023/08/07 08:16:33;;;;;;;179.27;51.90;;;;;;;;;;5053980;28;20405;-49
2023/08/07 08:18:59;;;;;;;178.50;51.57;;;;;;;;;;5054079;28;20405;-49
2023/08/07 08:21:25;;;;;;;178.57;52.40;;;;;;;;;;5053543;28;20511;-50
2023/08/07 08:23:51;;;;;;;179.67;52.17;;;;;;;;;;5052173;28;20823;-50
2023/08/07 08:26:17;;;;;;;180.10;53.07;;;;;;;;;;5053765;28;20413;-50
2023/08/07 08:28:43;;;;;;;180.13;52.50;;;;;;;;;;5052492;28;20417;-51
2023/08/07 08:31:09;;;;;;;177.17;50.50;;;;;;;;;;5043454;28;20491;-49
2023/08/07 08:33:34;;;;;;;179.57;52.07;;;;;;;;;;5050346;28;20425;-49
2023/08/07 08:36:00;;;;;;;179.63;52.67;;;;;;;;;;5048116;28;20769;-50
2023/08/07 08:38:32;;;;;;;178.80;52.20;;;;;;;;;;5055113;28;20411;-48
2023/08/07 08:40:58;;;;;;;181.10;53.10;;;;;;;;;;5052302;28;20552;-50
2023/08/07 08:43:25;;;;;;;183.15;54.63;;;;;;;;;;5052151;28;20673;-50
2023/08/07 08:45:51;;;;;;;181.15;53.15;;;;;;;;;;5051853;28;20190;-49
2023/08/07 08:48:23;;;;;;;180.70;52.92;;;;;;;;;;5053323;28;20745;-49
2023/08/07 08:50:50;;;;;;;184.18;54.72;;;;;;;;;;5049517;28;20224;-49
2023/08/07 08:53:17;;;;;;;178.93;52.08;;;;;;;;;;5052475;28;20179;-50
2023/08/07 08:55:46;;;;;;;179.93;52.25;;;;;;;;;;5052708;28;20167;-49
2023/08/07 08:58:13;;;;;;;178.60;51.55;;;;;;;;;;5053038;28;20189;-49
2023/08/07 09:00:40;;;;;;;179.90;52.17;;;;;;;;;;5051166;28;20603;-50
2023/08/07 09:03:06;;;;;;;179.95;52.25;;;;;;;;;;5053568;28;20585;-50
2023/08/07 09:05:32;;;;;;;180.30;52.70;;;;;;;;;;5062690;28;20181;-50
2023/08/07 09:07:58;;;;;;;177.57;51.05;;;;;;;;;;5049988;28;20421;-51
2023/08/07 09:10:25;;;;;;;179.95;52.47;;;;;;;;;;5048018;28;20274;-51
2023/08/07 09:13:00;;;;;;;181.32;52.85;;;;;;;;;;5052817;28;20175;-49
2023/08/07 09:15:27;;;;;;;180.05;52.85;;;;;;;;;;5047973;28;20174;-49
2023/08/07 09:17:55;;;;;;;179.55;52.17;;;;;;;;;;5046633;28;20182;-52
2023/08/07 09:20:22;;;;;;;178.68;51.70;;;;;;;;;;5050898;28;20210;-49
2023/08/07 09:22:48;;;;;;;180.65;52.95;;;;;;;;;;5052379;28;20194;-50
2023/08/07 09:25:14;;;;;;;179.57;52.00;;;;;;;;;;5052246;28;20651;-49
2023/08/07 09:27:41;;;;;;;181.10;53.22;;;;;;;;;;5052621;28;20405;-50
2023/08/07 09:30:10;;;;;;;181.88;53.28;;;;;;;;;;5045364;28;20175;-49
2023/08/07 09:32:38;;;;;;;180.98;52.80;;;;;;;;;;5052152;28;20181;-51
2023/08/07 09:35:04;;;;;;;181.65;52.78;;;;;;;;;;5052524;28;20159;-49
2023/08/07 09:37:30;;;;;;;181.85;53.20;;;;;;;;;;5052326;28;20171;-49
2023/08/07 09:39:57;;;;;;;184.38;54.67;;;;;;;;;;5047382;28;20198;-49
2023/08/07 09:42:23;;;;;;;184.55;54.70;;;;;;;;;;5051245;28;20175;-50
2023/08/07 09:44:50;;;;;;;182.63;53.70;;;;;;;;;;5051939;28;20182;-49
2023/08/07 09:47:17;;;;;;;183.68;53.90;;;;;;;;;;5050929;28;20406;-50
2023/08/07 09:49:43;;;;;;;187.05;57.25;;;;;;;;;;5052003;28;20167;-49
2023/08/07 09:52:10;;;;;;;183.20;53.08;;;;;;;;;;5052230;28;20198;-49
2023/08/07 09:54:36;;;;;;;185.23;55.13;;;;;;;;;;5052104;28;20578;-49
2023/08/07 09:57:02;;;;;;;183.88;53.92;;;;;;;;;;5052245;28;20176;-50
2023/08/07 09:59:29;;;;;;;186.10;55.70;;;;;;;;;;5044144;28;20254;-49
2023/08/07 10:01:55;;;;;;;185.80;55.03;;;;;;;;;;5050306;28;20358;-52
2023/08/07 10:04:25;;;;;;;185.68;55.63;;;;;;;;;;5063803;28;20173;-49
2023/08/07 10:06:51;;;;;;;185.00;53.83;;;;;;;;;;5052559;28;20177;-49
2023/08/07 10:09:17;;;;;;;185.63;54.40;;;;;;;;;;5038867;28;20182;-48
2023/08/07 10:11:43;;;;;;;186.80;56.08;;;;;;;;;;5051491;28;20206;-49
2023/08/07 10:14:09;;;;;;;184.67;53.87;;;;;;;;;;5052242;28;20182;-48
2023/08/07 10:16:40;;;;;;;184.38;53.75;;;;;;;;;;5060265;28;20437;-49
2023/08/07 10:19:06;;;;;;;184.52;53.83;;;;;;;;;;5048836;28;20666;-48
2023/08/07 10:21:35;;;;;;;182.75;52.45;;;;;;;;;;5051345;28;20210;-51
2023/08/07 10:24:03;;;;;;;184.32;53.58;;;;;;;;;;5051548;28;20172;-49
2023/08/07 10:26:30;;;;;;;183.00;53.90;;;;;;;;;;5050404;28;20179;-49
2023/08/07 10:28:56;;;;;;;182.52;52.85;;;;;;;;;;5050444;28;20210;-49
2023/08/07 10:31:23;;;;;;;185.13;54.60;;;;;;;;;;5051316;28;20211;-49
2023/08/07 10:33:49;;;;;;;183.65;54.00;;;;;;;;;;5052877;28;20175;-53
2023/08/07 10:36:16;;;;;;;184.30;54.22;;;;;;;;;;5047004;28;20178;-48
2023/08/07 10:38:42;;;;;;;184.00;54.30;;;;;;;;;;5045111;28;20583;-49
2023/08/07 10:41:09;;;;;;;187.50;57.40;;;;;;;;;;5049254;28;20214;-51
2023/08/07 10:43:39;;;;;;;188.90;56.97;;;;;;;;;;5048165;28;20423;-49
2023/08/07 10:46:12;;;;;;;184.60;53.87;;;;;;;;;;5050126;28;20494;-49
2023/08/07 10:48:39;;;;;;;186.67;56.10;;;;;;;;;;5045517;28;20457;-50
2023/08/07 10:51:05;;;;;;;185.20;55.17;;;;;;;;;;5050362;28;20446;-49
2023/08/07 10:53:31;;;;;;;186.83;55.67;;;;;;;;;;5051364;28;20406;-48
2023/08/07 10:55:58;;;;;;;187.30;57.20;;;;;;;;;;5051293;28;20500;-50
2023/08/07 10:58:30;;;;;;;185.80;56.50;;;;;;;;;;5050298;28;20930;-48
2023/08/07 11:01:14;;;;;;;184.73;55.70;;;;;;;;;;5051014;28;20499;-49
2023/08/07 11:03:41;;;;;;;185.83;55.67;;;;;;;;;;5052109;28;20401;-51
2023/08/07 11:06:09;;;;;;;183.57;55.20;;;;;;;;;;5051347;28;20401;-49
2023/08/07 11:08:35;;;;;;;186.87;58.70;;;;;;;;;;5051106;28;20403;-50
2023/08/07 11:11:05;;;;;;;184.20;55.00;;;;;;;;;;5050929;28;20477;-50
2023/08/07 11:13:31;;;;;;;185.60;55.97;;;;;;;;;;5051198;28;20496;-49
2023/08/07 11:15:57;;;;;;;183.23;54.67;;;;;;;;;;5053335;28;20535;-49
2023/08/07 11:18:23;;;;;;;183.25;54.03;;;;;;;;;;5053440;28;20583;-48
2023/08/07 11:20:49;;;;;;;183.93;55.83;;;;;;;;;;5050848;28;20197;-49
2023/08/07 11:23:15;;;;;;;183.83;55.17;;;;;;;;;;5051157;28;20777;-49
2023/08/07 11:25:42;;;;;;;183.77;54.70;;;;;;;;;;5050229;28;20405;-49
2023/08/07 11:28:08;;;;;;;183.67;54.90;;;;;;;;;;5051124;28;20929;-48
2023/08/07 11:30:35;;;;;;;186.60;56.70;;;;;;;;;;5050759;28;20859;-49
2023/08/07 11:33:01;;;;;;;185.70;55.40;;;;;;;;;;5051012;28;20905;-51
2023/08/07 11:35:27;;;;;;;186.37;58.57;;;;;;;;;;5050883;28;20491;-49
2023/08/07 11:37:54;;;;;;;189.90;60.47;;;;;;;;;;5050990;28;20974;-50
2023/08/07 11:40:20;;;;;;;185.57;56.67;;;;;;;;;;5051515;28;20456;-50
2023/08/07 11:42:46;;;;;;;186.97;58.27;;;;;;;;;;5053323;28;20181;-49
2023/08/07 11:45:12;;;;;;;188.50;59.17;;;;;;;;;;5046623;28;20410;-49
2023/08/07 11:47:39;;;;;;;187.27;57.70;;;;;;;;;;5053213;28;20412;-50
2023/08/07 11:50:05;;;;;;;187.60;58.30;;;;;;;;;;5054124;28;20421;-49
2023/08/07 11:52:31;;;;;;;186.60;57.10;;;;;;;;;;5054512;28;20412;-49
2023/08/07 11:54:57;;;;;;;184.97;56.83;;;;;;;;;;5054628;28;20398;-49
2023/08/07 11:57:23;;;;;;;186.47;57.17;;;;;;;;;;5054423;28;21028;-49
2023/08/07 11:59:52;;;;;;;190.17;60.80;;;;;;;;;;5054130;28;20915;-49
2023/08/07 12:02:23;;;;;;;186.97;57.73;;;;;;;;;;5054248;28;20458;-49
2023/08/07 12:04:49;;;;;;;185.07;56.47;;;;;;;;;;5054204;28;20766;-49
2023/08/07 12:07:19;;;;;;;185.87;56.77;;;;;;;;;;5053449;28;20431;-49
2023/08/07 12:09:45;;;;;;;192.10;62.37;;;;;;;;;;5054040;28;20468;-48
2023/08/07 12:12:11;;;;;;;187.20;58.13;;;;;;;;;;5050214;28;20853;-50
2023/08/07 12:14:40;;;;;;;187.87;57.27;;;;;;;;;;5052778;28;20411;-49
2023/08/07 12:17:06;;;;;;;188.23;58.70;;;;;;;;;;5053965;28;20484;-49
2023/08/07 12:19:38;;;;;;;190.47;62.87;;;;;;;;;;5053622;28;20430;-51
2023/08/07 12:22:07;;;;;;;187.83;57.93;;;;;;;;;;5052604;28;20797;-50
2023/08/07 12:24:33;;;;;;;189.07;59.73;;;;;;;;;;5053753;28;20969;-50
2023/08/07 12:26:59;;;;;;;193.27;65.83;;;;;;;;;;5053827;28;20497;-50
2023/08/07 12:29:28;;;;;;;189.13;59.00;;;;;;;;;;5053791;28;20436;-50
2023/08/07 12:31:55;;;;;;;189.60;60.50;;;;;;;;;;5053475;28;20429;-50
2023/08/07 12:34:20;;;;;;;188.13;60.37;;;;;;;;;;5052992;28;20409;-51
2023/08/07 12:36:47;;;;;;;187.47;59.57;;;;;;;;;;5053673;28;20463;-51
2023/08/07 12:39:13;;;;;;;186.10;58.20;;;;;;;;;;5051244;28;20406;-51
2023/08/07 12:41:38;;;;;;;186.70;58.50;;;;;;;;;;5053189;28;20557;-50
2023/08/07 12:44:05;;;;;;;186.90;58.33;;;;;;;;;;5047873;28;20847;-49
2023/08/07 12:46:31;;;;;;;187.73;59.67;;;;;;;;;;5053527;28;20492;-49
2023/08/07 12:48:57;;;;;;;188.70;60.63;;;;;;;;;;5052758;28;20497;-49
2023/08/07 12:51:23;;;;;;;194.63;66.50;;;;;;;;;;5051807;28;20484;-50
2023/08/07 12:53:51;;;;;;;190.93;61.93;;;;;;;;;;5052429;28;20441;-50
2023/08/07 12:56:17;;;;;;;185.23;58.50;;;;;;;;;;5052813;28;20432;-50
2023/08/07 12:58:43;;;;;;;184.70;55.87;;;;;;;;;;5052344;28;20439;-50
2023/08/07 13:01:10;;;;;;;187.37;58.57;;;;;;;;;;5052985;28;20465;-51
2023/08/07 13:03:36;;;;;;;190.17;63.07;;;;;;;;;;5052567;28;20913;-49
2023/08/07 13:06:05;;;;;;;185.83;58.80;;;;;;;;;;5053242;28;20425;-49
2023/08/07 13:08:33;;;;;;;183.77;55.53;;;;;;;;;;5052973;28;20424;-50
2023/08/07 13:10:59;;;;;;;185.47;57.47;;;;;;;;;;5052697;28;20441;-50
2023/08/07 13:13:25;;;;;;;188.70;59.33;;;;;;;;;;5052964;28;20765;-49
2023/08/07 13:15:51;;;;;;;188.67;59.70;;;;;;;;;;5053256;28;20470;-49
2023/08/07 13:18:17;;;;;;;187.13;60.20;;;;;;;;;;5052446;28;20413;-49
2023/08/07 13:20:42;;;;;;;190.17;62.07;;;;;;;;;;5052363;28;20460;-49
2023/08/07 13:23:08;;;;;;;188.97;60.83;;;;;;;;;;5048914;28;20409;-51
2023/08/07 13:25:34;;;;;;;189.10;61.93;;;;;;;;;;5052648;28;20407;-49
2023/08/07 13:28:04;;;;;;;187.57;59.73;;;;;;;;;;5052901;28;20409;-49
2023/08/07 13:30:30;;;;;;;191.30;62.23;;;;;;;;;;5051777;28;20854;-50
2023/08/07 13:32:56;;;;;;;188.57;61.87;;;;;;;;;;5052816;28;20492;-49
2023/08/07 13:35:21;;;;;;;190.20;63.03;;;;;;;;;;5052478;28;20410;-50
2023/08/07 13:37:47;;;;;;;189.73;62.40;;;;;;;;;;5052582;28;20474;-50
2023/08/07 13:40:14;;;;;;;189.03;61.30;;;;;;;;;;5045708;28;20467;-51
2023/08/07 13:42:40;;;;;;;190.53;63.17;;;;;;;;;;5052582;28;20412;-49
2023/08/07 13:45:07;;;;;;;188.07;61.17;;;;;;;;;;5052449;28;20424;-49
2023/08/07 13:47:33;;;;;;;189.90;63.00;;;;;;;;;;5045547;28;20906;-50
2023/08/07 13:49:59;;;;;;;192.77;65.40;;;;;;;;;;5040950;28;20523;-50
2023/08/07 13:52:25;;;;;;;189.93;62.47;;;;;;;;;;5041139;28;20408;-51
2023/08/07 13:54:51;;;;;;;188.57;62.50;;;;;;;;;;5045120;28;20402;-49
2023/08/07 13:57:17;;;;;;;190.33;62.13;;;;;;;;;;5051738;28;20964;-50
2023/08/07 13:59:43;;;;;;;190.73;62.53;;;;;;;;;;5050904;28;20492;-50